Terminal Aerodrome Forecast
Issued by NWS

Home | Current Version | Previous Version | Text Only | Print | Product List | Glossary On
Versions: 1 2 3 4 5 6 7 8 9 10 11 12 13
000
FTUS45 KABQ 200533
TAFTCC
TAF
KTCC 200533Z 2006/2106 22012KT P6SM SCT250
     FM201200 26011KT P6SM SCT250
     FM201800 27013G22KT P6SM SCT250=

USA.gov is the U.S. government's official web portal to all federal, state and local government web resources and services.